createdAt,value
2018-12-29T00:01:18.907Z,40.85
2018-12-29T00:03:48.060Z,42.27
2018-12-29T00:06:17.344Z,48.50
2018-12-29T00:08:46.648Z,47.17
2018-12-29T00:11:15.902Z,45.12
2018-12-29T00:13:45.689Z,47.20
2018-12-29T00:16:14.857Z,43.95
2018-12-29T00:18:43.879Z,43.60
2018-12-29T00:21:12.952Z,50.00
2018-12-29T00:23:42.130Z,47.35
2018-12-29T00:26:11.548Z,51.53
2018-12-29T00:28:40.740Z,45.23
2018-12-29T00:31:09.727Z,46.30
2018-12-29T00:33:38.766Z,47.20
2018-12-29T00:36:07.882Z,44.25
2018-12-29T00:38:36.971Z,44.35
2018-12-29T00:41:06.155Z,47.17
2018-12-29T00:43:35.168Z,44.90
2018-12-29T00:46:04.219Z,48.80
2018-12-29T00:48:33.240Z,46.30
2018-12-29T00:51:02.259Z,46.18
2018-12-29T00:53:31.395Z,48.23
2018-12-29T00:56:00.430Z,41.55
2018-12-29T00:58:29.299Z,44.80
2018-12-29T01:00:58.202Z,44.15
2018-12-29T01:03:27.158Z,40.58
2018-12-29T01:05:56.114Z,40.48
2018-12-29T01:08:25.156Z,43.08
2018-12-29T01:10:54.142Z,46.65
2018-12-29T01:13:23.069Z,42.70
2018-12-29T01:15:52.063Z,38.45
2018-12-29T01:18:21.053Z,41.77
2018-12-29T01:20:50.418Z,39.13
2018-12-29T01:23:19.652Z,38.85
2018-12-29T01:25:48.652Z,48.35
2018-12-29T01:28:17.666Z,45.10
2018-12-29T01:30:46.773Z,41.63
2018-12-29T01:33:15.670Z,42.95
2018-12-29T01:35:44.699Z,48.85
2018-12-29T01:38:13.725Z,40.52
2018-12-29T01:40:42.705Z,37.55
2018-12-29T01:43:11.804Z,41.02
2018-12-29T01:45:40.884Z,46.40
2018-12-29T01:48:09.850Z,40.25
2018-12-29T01:50:38.818Z,40.98
2018-12-29T01:53:07.772Z,39.55
2018-12-29T01:55:36.699Z,40.50
2018-12-29T01:58:05.621Z,40.43
2018-12-29T02:00:35.038Z,35.48
2018-12-29T02:03:04.177Z,41.85
2018-12-29T02:05:33.376Z,40.50
2018-12-29T02:08:02.363Z,36.83
2018-12-29T02:10:31.507Z,36.03
2018-12-29T02:13:00.352Z,41.68
2018-12-29T02:15:29.205Z,41.15
2018-12-29T02:17:58.217Z,39.98
2018-12-29T02:20:27.554Z,36.88
2018-12-29T02:22:56.487Z,40.35
2018-12-29T02:25:25.419Z,41.70
2018-12-29T02:27:54.379Z,41.23
2018-12-29T02:30:23.575Z,39.38
2018-12-29T02:32:52.630Z,42.35
2018-12-29T02:35:21.679Z,36.65
2018-12-29T02:37:50.864Z,48.33
2018-12-29T02:40:19.853Z,41.63
2018-12-29T02:42:48.985Z,35.73
2018-12-29T02:45:17.982Z,43.28
2018-12-29T02:47:46.946Z,41.45
2018-12-29T02:50:15.912Z,49.90
2018-12-29T02:52:44.807Z,46.90
2018-12-29T02:55:13.755Z,37.30
2018-12-29T02:57:42.793Z,45.70
2018-12-29T03:00:11.921Z,49.40
2018-12-29T03:02:40.795Z,41.77
2018-12-29T03:05:09.750Z,46.90
2018-12-29T03:07:38.699Z,45.20
2018-12-29T03:10:07.733Z,46.10
2018-12-29T03:12:36.711Z,39.25
2018-12-29T03:15:05.651Z,43.00
2018-12-29T03:17:34.577Z,47.62
2018-12-29T03:20:03.722Z,50.40
2018-12-29T03:22:32.600Z,46.02
2018-12-29T03:25:01.652Z,49.27
2018-12-29T03:27:30.526Z,53.58
2018-12-29T03:29:59.568Z,46.30
2018-12-29T03:32:28.451Z,45.05
2018-12-29T03:34:57.268Z,51.73
2018-12-29T03:37:26.121Z,48.95
2018-12-29T03:39:55.045Z,44.18
2018-12-29T03:42:23.931Z,51.65
2018-12-29T03:44:53.559Z,49.20
2018-12-29T03:47:22.465Z,39.92
2018-12-29T03:49:51.397Z,43.15
2018-12-29T03:52:20.299Z,48.40
2018-12-29T03:54:49.293Z,54.18
2018-12-29T03:57:18.122Z,50.10
2018-12-29T03:59:46.919Z,47.93
2018-12-29T04:02:15.694Z,48.90
2018-12-29T04:04:44.540Z,46.35
2018-12-29T04:07:13.475Z,44.88
2018-12-29T04:09:42.290Z,45.30
2018-12-29T04:12:17.211Z,42.35
2018-12-29T04:14:46.250Z,40.52
2018-12-29T04:17:15.122Z,47.93
2018-12-29T04:19:43.999Z,38.88
2018-12-29T04:22:12.827Z,34.40
2018-12-29T04:24:41.671Z,32.42
2018-12-29T04:27:10.547Z,36.13
2018-12-29T04:29:39.339Z,40.30
2018-12-29T04:32:08.207Z,35.83
2018-12-29T04:34:37.120Z,35.15
2018-12-29T04:37:06.072Z,35.85
2018-12-29T04:39:34.903Z,32.75
2018-12-29T04:42:03.845Z,39.63
2018-12-29T04:44:32.690Z,28.30
2018-12-29T04:47:01.650Z,41.48
2018-12-29T04:49:30.512Z,36.77
2018-12-29T04:51:59.448Z,41.90
2018-12-29T04:54:28.392Z,34.92
2018-12-29T04:56:57.334Z,36.15
2018-12-29T04:59:26.533Z,31.07
2018-12-29T05:01:55.446Z,33.73
2018-12-29T05:04:24.380Z,32.75
2018-12-29T05:06:53.280Z,34.67
2018-12-29T05:09:22.176Z,32.40
2018-12-29T05:11:51.033Z,33.08
2018-12-29T05:14:19.943Z,28.17
2018-12-29T05:16:48.788Z,36.42
2018-12-29T05:19:17.652Z,32.00
2018-12-29T05:21:46.648Z,32.10
2018-12-29T05:24:15.639Z,27.90
2018-12-29T05:26:44.511Z,25.08
2018-12-29T05:29:13.433Z,26.87
2018-12-29T05:31:42.460Z,27.55
2018-12-29T05:34:11.406Z,27.13
2018-12-29T05:36:40.390Z,27.80
2018-12-29T05:39:09.306Z,27.52
2018-12-29T05:41:38.252Z,26.30
2018-12-29T05:44:07.152Z,26.23
2018-12-29T05:46:35.975Z,25.92
2018-12-29T05:49:04.855Z,27.32
2018-12-29T05:51:33.684Z,27.17
2018-12-29T05:54:02.512Z,32.55
2018-12-29T05:56:31.430Z,27.13
2018-12-29T05:59:00.362Z,32.05
2018-12-29T06:01:29.305Z,30.50
2018-12-29T06:03:58.177Z,29.18
2018-12-29T06:06:27.128Z,29.82
2018-12-29T06:08:56.013Z,29.30
2018-12-29T06:11:24.834Z,31.33
2018-12-29T06:13:53.644Z,36.03
2018-12-29T06:16:27.606Z,34.80
2018-12-29T06:18:53.075Z,32.63
2018-12-29T06:21:21.854Z,31.17
2018-12-29T06:23:50.702Z,33.53
2018-12-29T06:26:19.499Z,27.60
2018-12-29T06:28:48.339Z,27.73
2018-12-29T06:31:17.194Z,30.52
2018-12-29T06:33:46.040Z,30.40
2018-12-29T06:36:14.975Z,30.48
2018-12-29T06:38:43.788Z,36.85
2018-12-29T06:41:12.614Z,32.67
2018-12-29T06:43:41.439Z,38.13
2018-12-29T06:46:10.375Z,35.25
2018-12-29T06:48:39.215Z,38.33
2018-12-29T06:51:08.023Z,35.40
2018-12-29T06:53:36.811Z,39.25
2018-12-29T06:56:05.614Z,37.20
2018-12-29T06:58:34.470Z,46.92
2018-12-29T07:01:03.259Z,37.88
2018-12-29T07:03:32.134Z,42.60
2018-12-29T07:06:00.944Z,51.00
2018-12-29T07:08:29.776Z,43.30
2018-12-29T07:10:58.638Z,56.35
2018-12-29T07:13:27.644Z,48.87
2018-12-29T07:15:56.442Z,43.30
2018-12-29T07:18:25.267Z,45.80
2018-12-29T07:20:54.090Z,43.02
2018-12-29T07:23:22.964Z,47.20
2018-12-29T07:25:51.776Z,48.68
2018-12-29T07:28:20.646Z,46.25
2018-12-29T07:30:49.447Z,48.85
2018-12-29T07:33:18.363Z,61.00
2018-12-29T07:35:47.139Z,64.27
2018-12-29T07:38:15.959Z,53.02
2018-12-29T07:40:44.832Z,50.95
2018-12-29T07:43:13.656Z,52.43
2018-12-29T07:45:42.471Z,46.20
2018-12-29T07:48:11.362Z,54.00
2018-12-29T07:50:40.339Z,52.58
2018-12-29T07:53:09.168Z,53.50
2018-12-29T07:55:37.984Z,55.25
2018-12-29T07:58:06.822Z,55.10
2018-12-29T08:00:35.675Z,50.63
2018-12-29T08:03:04.602Z,52.98
2018-12-29T08:05:33.463Z,50.80
2018-12-29T08:08:02.288Z,49.85
2018-12-29T08:10:31.084Z,54.27
2018-12-29T08:12:59.927Z,52.08
2018-12-29T08:15:28.766Z,50.25
2018-12-29T08:17:57.589Z,53.83
2018-12-29T08:20:26.456Z,60.95
2018-12-29T08:22:55.355Z,66.62
2018-12-29T08:25:24.162Z,56.95
2018-12-29T08:27:52.965Z,59.63
2018-12-29T08:30:21.812Z,52.88
2018-12-29T08:32:50.644Z,56.83
2018-12-29T08:35:19.522Z,47.50
2018-12-29T08:37:48.430Z,48.42
2018-12-29T08:40:17.315Z,52.83
2018-12-29T08:42:46.153Z,49.38
2018-12-29T08:45:15.024Z,42.30
2018-12-29T08:47:44.916Z,50.52
2018-12-29T08:50:13.742Z,45.43
2018-12-29T08:52:42.672Z,39.75
2018-12-29T08:55:11.586Z,39.10
2018-12-29T08:57:40.480Z,37.45
2018-12-29T09:00:09.484Z,40.73
2018-12-29T09:02:38.302Z,38.28
2018-12-29T09:05:07.331Z,34.92
2018-12-29T09:07:36.122Z,33.85
2018-12-29T09:10:05.875Z,42.85
2018-12-29T09:12:34.801Z,39.63
2018-12-29T09:15:03.781Z,39.88
2018-12-29T09:17:32.655Z,33.83
2018-12-29T09:20:01.602Z,36.05
2018-12-29T09:22:30.416Z,33.95
2018-12-29T09:24:59.475Z,37.38
2018-12-29T09:27:28.542Z,35.78
2018-12-29T09:29:57.333Z,41.28
2018-12-29T09:32:26.223Z,32.00
2018-12-29T09:34:55.511Z,40.10
2018-12-29T09:37:24.452Z,36.30
2018-12-29T09:39:53.342Z,40.80
2018-12-29T09:42:22.339Z,39.98
2018-12-29T09:44:51.404Z,46.77
2018-12-29T09:47:20.323Z,50.80
2018-12-29T09:49:49.235Z,39.73
2018-12-29T09:52:18.193Z,41.00
2018-12-29T09:54:47.132Z,49.42
2018-12-29T09:57:16.075Z,55.08
2018-12-29T09:59:45.754Z,42.48
2018-12-29T10:02:14.851Z,51.02
2018-12-29T10:04:44.407Z,49.08
2018-12-29T10:07:13.933Z,49.08
2018-12-29T10:09:43.214Z,53.80
2018-12-29T10:12:12.133Z,38.88
2018-12-29T10:14:41.056Z,44.10
2018-12-29T10:17:10.176Z,42.03
2018-12-29T10:19:39.117Z,44.50
2018-12-29T10:22:27.281Z,42.23
2018-12-29T10:24:56.207Z,39.60
2018-12-29T10:27:25.271Z,37.48
2018-12-29T10:29:54.327Z,55.80
2018-12-29T10:32:23.343Z,38.45
2018-12-29T10:34:52.555Z,50.17
2018-12-29T10:37:21.622Z,50.40
2018-12-29T10:39:50.468Z,44.23
2018-12-29T10:42:19.362Z,37.00
2018-12-29T10:44:48.168Z,40.70
2018-12-29T10:47:17.084Z,42.40
2018-12-29T10:49:45.931Z,40.00
2018-12-29T10:52:14.833Z,37.67
2018-12-29T10:54:43.712Z,37.95
2018-12-29T10:57:12.656Z,37.20
2018-12-29T10:59:41.497Z,37.13
2018-12-29T11:02:10.298Z,38.55
2018-12-29T11:04:39.112Z,34.85
2018-12-29T11:07:08.150Z,34.25
2018-12-29T11:09:37.043Z,35.08
2018-12-29T11:12:05.958Z,34.83
2018-12-29T11:14:34.836Z,40.28
2018-12-29T11:17:03.871Z,34.60
2018-12-29T11:19:32.874Z,31.97
2018-12-29T11:22:01.814Z,35.38
2018-12-29T11:24:30.775Z,31.50
2018-12-29T11:26:59.811Z,29.85
2018-12-29T11:29:28.705Z,45.65
2018-12-29T11:32:00.064Z,32.28
2018-12-29T11:34:28.944Z,36.30
2018-12-29T11:36:57.764Z,30.72
2018-12-29T11:39:26.570Z,31.90
2018-12-29T11:41:55.392Z,32.03
2018-12-29T11:44:24.224Z,32.00
2018-12-29T11:46:53.260Z,28.10
2018-12-29T11:49:22.270Z,30.62
2018-12-29T11:51:51.173Z,29.12
2018-12-29T11:54:20.029Z,34.10
2018-12-29T11:56:49.036Z,31.15
2018-12-29T11:59:17.935Z,33.30
2018-12-29T12:01:46.843Z,31.70
2018-12-29T12:04:15.715Z,34.35
2018-12-29T12:06:44.594Z,29.15
2018-12-29T12:09:13.751Z,34.00
2018-12-29T12:11:42.770Z,33.80
2018-12-29T12:14:11.741Z,39.63
2018-12-29T12:16:40.604Z,34.95
2018-12-29T12:19:09.576Z,37.33
2018-12-29T12:21:38.879Z,37.48
2018-12-29T12:24:07.891Z,36.55
2018-12-29T12:26:36.898Z,35.20
2018-12-29T12:29:07.945Z,38.80
2018-12-29T12:31:39.832Z,38.98
2018-12-29T12:34:08.728Z,48.85
2018-12-29T12:36:38.041Z,42.75
2018-12-29T12:39:07.995Z,52.35
2018-12-29T12:41:37.524Z,60.90
2018-12-29T12:44:06.805Z,63.35
2018-12-29T12:46:36.116Z,61.90
2018-12-29T12:49:05.591Z,61.92
2018-12-29T12:51:34.609Z,57.35
2018-12-29T12:54:04.212Z,56.37
2018-12-29T12:56:33.248Z,53.75
2018-12-29T12:59:02.262Z,52.25
2018-12-29T13:01:31.599Z,52.78
2018-12-29T13:04:00.822Z,52.00
2018-12-29T13:06:29.816Z,56.55
2018-12-29T13:08:59.073Z,53.68
2018-12-29T13:11:28.267Z,54.85
2018-12-29T13:13:57.290Z,51.70
2018-12-29T13:16:45.670Z,59.18
2018-12-29T13:19:15.087Z,57.17
2018-12-29T13:21:44.100Z,57.53
2018-12-29T13:24:13.173Z,50.88
2018-12-29T13:26:42.460Z,54.60
2018-12-29T13:29:11.572Z,58.28
2018-12-29T13:31:40.906Z,54.48
2018-12-29T13:34:10.013Z,52.50
2018-12-29T13:36:38.942Z,51.25
2018-12-29T13:39:08.533Z,50.03
2018-12-29T13:41:37.600Z,49.00
2018-12-29T13:44:11.212Z,49.53
2018-12-29T13:46:40.354Z,52.50
2018-12-29T13:49:09.573Z,55.08
2018-12-29T13:51:39.684Z,59.73
2018-12-29T14:00:40.272Z,54.90
2018-12-29T14:03:10.209Z,54.53
2018-12-29T14:05:39.156Z,50.83
2018-12-29T14:08:08.146Z,53.17
2018-12-29T14:10:37.121Z,52.35
2018-12-29T14:13:06.352Z,58.13
2018-12-29T14:15:57.897Z,59.25
2018-12-29T14:18:28.327Z,61.60
2018-12-29T14:20:57.779Z,49.85
2018-12-29T14:23:30.159Z,56.48
2018-12-29T14:25:59.262Z,55.73
2018-12-29T14:28:28.360Z,53.65
2018-12-29T14:30:57.826Z,55.55
2018-12-29T14:33:27.121Z,50.75
2018-12-29T14:35:58.615Z,53.55
2018-12-29T14:38:32.065Z,61.02
2018-12-29T14:41:03.488Z,62.75
2018-12-29T14:43:34.018Z,57.25
2018-12-29T14:46:03.698Z,61.15
2018-12-29T14:48:36.085Z,53.05
2018-12-29T14:51:03.627Z,60.05
2018-12-29T14:53:39.797Z,54.73
2018-12-29T14:56:16.465Z,50.08
2018-12-29T14:58:44.051Z,58.17
2018-12-29T15:04:06.505Z,52.95
2018-12-29T15:06:35.711Z,61.85
2018-12-29T15:09:28.675Z,51.50
2018-12-29T15:11:59.325Z,55.50
2018-12-29T15:14:28.666Z,67.15
2018-12-29T15:16:57.782Z,56.15
2018-12-29T15:19:26.968Z,55.67
2018-12-29T15:21:58.806Z,58.38
2018-12-29T15:24:27.731Z,54.27
2018-12-29T15:30:04.251Z,63.58
2018-12-29T15:32:33.340Z,58.25
2018-12-29T15:35:02.814Z,53.17
2018-12-29T15:37:33.265Z,51.10
2018-12-29T15:40:05.109Z,42.88
2018-12-29T15:42:35.008Z,52.75
2018-12-29T15:45:04.588Z,44.88
2018-12-29T15:47:55.609Z,49.77
2018-12-29T15:50:24.972Z,48.58
2018-12-29T15:52:54.621Z,46.80
2018-12-29T15:55:23.901Z,49.38
2018-12-29T15:57:53.094Z,44.38
2018-12-29T16:00:22.738Z,44.77
2018-12-29T16:02:52.253Z,41.23
2018-12-29T16:05:23.675Z,48.70
2018-12-29T16:07:56.090Z,48.23
2018-12-29T16:10:25.274Z,40.92
2018-12-29T16:13:03.301Z,39.30
2018-12-29T16:15:32.610Z,44.35
2018-12-29T16:18:02.086Z,41.55
2018-12-29T16:20:31.492Z,50.88
2018-12-29T16:23:00.511Z,43.08
2018-12-29T16:25:29.556Z,43.87
2018-12-29T16:27:58.595Z,43.35
2018-12-29T16:30:27.931Z,44.65
2018-12-29T16:32:57.240Z,46.63
2018-12-29T16:35:26.366Z,36.38
2018-12-29T16:38:19.644Z,48.17
2018-12-29T16:40:48.828Z,39.75
2018-12-29T16:43:18.188Z,39.15
2018-12-29T16:45:48.314Z,40.50
2018-12-29T16:48:17.417Z,42.58
2018-12-29T16:50:46.651Z,33.83
2018-12-29T16:53:15.648Z,41.25
2018-12-29T16:55:44.903Z,37.42
2018-12-29T16:58:13.906Z,32.98
2018-12-29T17:00:42.920Z,37.73
2018-12-29T17:03:12.028Z,48.20
2018-12-29T17:05:41.103Z,47.10
2018-12-29T17:08:09.996Z,39.35
2018-12-29T17:10:39.050Z,44.23
2018-12-29T17:13:08.087Z,36.17
2018-12-29T17:15:37.253Z,39.35
2018-12-29T17:18:06.579Z,36.95
2018-12-29T17:20:35.593Z,39.88
2018-12-29T17:23:04.604Z,39.23
2018-12-29T17:25:33.859Z,41.10
2018-12-29T17:28:02.855Z,40.73
2018-12-29T17:30:51.449Z,36.75
2018-12-29T17:33:20.398Z,39.05
2018-12-29T17:35:49.666Z,42.85
2018-12-29T17:38:19.128Z,33.60
2018-12-29T17:41:23.053Z,33.15
2018-12-29T17:44:19.365Z,37.17
2018-12-29T17:46:51.437Z,38.98
2018-12-29T17:49:22.766Z,43.78
2018-12-29T17:51:51.208Z,36.28
2018-12-29T17:54:20.872Z,36.45
2018-12-29T17:56:50.285Z,39.13
2018-12-29T17:59:19.559Z,32.70
2018-12-29T18:01:48.892Z,36.08
2018-12-29T18:04:17.936Z,39.78
2018-12-29T18:06:46.861Z,35.48
2018-12-29T18:09:16.981Z,36.53
2018-12-29T18:11:45.987Z,36.25
2018-12-29T18:14:14.918Z,34.33
2018-12-29T18:16:43.897Z,36.30
2018-12-29T18:19:13.199Z,31.37
2018-12-29T18:21:42.254Z,35.40
2018-12-29T18:24:11.484Z,30.08
2018-12-29T18:26:42.452Z,34.20
2018-12-29T18:29:11.675Z,27.62
2018-12-29T18:31:41.409Z,25.72
2018-12-29T18:34:13.611Z,25.82
2018-12-29T18:36:42.655Z,27.27
2018-12-29T18:39:11.833Z,32.17
2018-12-29T18:41:41.988Z,27.22
2018-12-29T18:44:12.429Z,30.37
2018-12-29T18:46:41.724Z,32.90
2018-12-29T18:49:10.679Z,24.45
2018-12-29T18:51:39.716Z,26.40
2018-12-29T18:54:08.708Z,30.92
2018-12-29T18:56:45.377Z,26.23
2018-12-29T18:59:12.366Z,26.48
2018-12-29T19:01:41.617Z,25.72
2018-12-29T19:04:12.289Z,27.25
2018-12-29T19:07:03.801Z,26.50
2018-12-29T19:09:37.163Z,28.90
2018-12-29T19:12:11.355Z,32.90
2018-12-29T19:15:00.312Z,29.20
2018-12-29T19:17:29.623Z,31.45
2018-12-29T19:19:58.883Z,22.75
2018-12-29T19:22:27.913Z,23.95
2018-12-29T19:24:57.331Z,25.55
2018-12-29T19:27:26.526Z,25.10
2018-12-29T19:29:55.621Z,25.35
2018-12-29T19:32:24.753Z,22.25
2018-12-29T19:34:54.141Z,19.92
2018-12-29T19:37:23.467Z,20.45
2018-12-29T19:39:52.494Z,21.25
2018-12-29T19:42:25.349Z,19.23
2018-12-29T19:44:54.383Z,18.85
2018-12-29T19:47:24.033Z,16.73
2018-12-29T19:49:54.009Z,25.23
2018-12-29T19:52:23.154Z,10.85
2018-12-29T19:55:11.407Z,10.82
2018-12-29T19:57:40.303Z,8.85
2018-12-29T20:00:10.802Z,8.25
2018-12-29T20:02:40.614Z,5.87
2018-12-29T20:05:09.873Z,4.25
2018-12-29T20:07:38.913Z,8.18
2018-12-29T20:10:08.280Z,4.72
2018-12-29T20:12:37.400Z,8.40
2018-12-29T20:15:07.043Z,4.10
2018-12-29T20:20:24.950Z,2.85
2018-12-29T20:22:56.851Z,3.35
2018-12-29T20:25:30.402Z,2.40
2018-12-29T20:28:01.269Z,1.40
2018-12-29T20:30:31.032Z,2.35
2018-12-29T20:33:00.910Z,3.80
2018-12-29T20:35:49.336Z,4.47
2018-12-29T20:38:20.273Z,1.72
2018-12-29T20:40:52.109Z,1.05
2018-12-29T20:43:21.705Z,1.42
2018-12-29T20:45:53.866Z,1.15
2018-12-29T20:48:27.498Z,4.03
2018-12-29T20:51:13.148Z,5.78
2018-12-29T20:53:44.891Z,1.60
2018-12-29T20:56:16.305Z,1.82
2018-12-29T20:59:04.569Z,4.78
2018-12-29T21:01:33.664Z,4.53
2018-12-29T21:04:03.218Z,2.72
2018-12-29T21:06:51.536Z,3.05
2018-12-29T21:09:20.549Z,1.30
2018-12-29T21:11:49.637Z,1.67
2018-12-29T21:14:21.781Z,3.70
2018-12-29T21:16:50.836Z,6.65
2018-12-29T21:19:19.972Z,2.35
2018-12-29T21:22:08.275Z,2.62
2018-12-29T21:24:56.804Z,3.37
2018-12-29T21:27:27.891Z,0.93
2018-12-29T21:29:56.988Z,5.12
2018-12-29T21:32:26.571Z,1.42
2018-12-29T21:34:59.903Z,0.80
2018-12-29T21:37:30.176Z,1.77
2018-12-29T21:40:02.010Z,3.20
2018-12-29T21:42:31.315Z,1.35
2018-12-29T21:45:02.021Z,3.08
2018-12-29T21:47:34.094Z,1.70
2018-12-29T21:50:03.151Z,2.30
2018-12-29T21:52:32.428Z,1.75
2018-12-29T21:55:02.049Z,3.95
2018-12-29T21:57:31.394Z,1.12
2018-12-29T22:00:04.204Z,2.85
2018-12-29T22:02:33.247Z,1.80
2018-12-29T22:05:05.116Z,0.93
2018-12-29T22:07:34.328Z,1.70
2018-12-29T22:10:03.493Z,0.93
2018-12-29T22:12:32.614Z,1.62
2018-12-29T22:15:02.925Z,1.85
2018-12-29T22:17:31.932Z,2.15
2018-12-29T22:20:00.978Z,1.20
2018-12-29T22:22:33.224Z,1.98
2018-12-29T22:25:03.148Z,1.35
2018-12-29T22:27:36.397Z,1.98
2018-12-29T22:30:08.041Z,3.77
2018-12-29T22:32:38.293Z,1.67
2018-12-29T22:35:07.401Z,4.12
2018-12-29T22:37:36.642Z,5.10
2018-12-29T22:40:08.372Z,6.17
2018-12-29T22:42:37.828Z,8.23
2018-12-29T22:45:07.503Z,3.70
2018-12-29T22:47:36.783Z,3.35
2018-12-29T22:50:06.734Z,3.83
2018-12-29T22:52:36.187Z,3.27
2018-12-29T22:55:07.329Z,5.70
2018-12-29T22:57:42.237Z,7.10
2018-12-29T23:00:26.398Z,5.03
2018-12-29T23:03:00.065Z,6.78
2018-12-29T23:05:31.598Z,10.90
2018-12-29T23:08:04.583Z,8.88
2018-12-29T23:10:33.651Z,14.38
2018-12-29T23:13:05.641Z,12.25
2018-12-29T23:15:34.910Z,11.78
2018-12-29T23:18:03.931Z,10.15
2018-12-29T23:20:33.402Z,12.58
2018-12-29T23:23:02.485Z,18.62
2018-12-29T23:25:31.917Z,21.37
2018-12-29T23:28:01.172Z,21.85
2018-12-29T23:30:49.309Z,24.15
2018-12-29T23:33:20.617Z,17.07
2018-12-29T23:35:51.206Z,21.90
2018-12-29T23:38:20.228Z,21.17
2018-12-29T23:40:49.480Z,16.57
2018-12-29T23:43:19.131Z,15.95
2018-12-29T23:45:48.412Z,11.35
2018-12-29T23:48:17.432Z,17.70
2018-12-29T23:50:47.723Z,19.87
2018-12-29T23:53:16.734Z,18.90
2018-12-29T23:55:48.032Z,26.25
2018-12-29T23:58:17.053Z,13.50
